Monday, November 20, 2017, 6:44 PM GMT
Back to Local

CXDI, Delhi CS, Ont.

Location: , , Canada Lat: 42.867
Local Time: 6:44 PM GMT (18:44 GMT) Lon: -80.55
Time Zone: GMT Elev: 761 ft

Show me the last for .
Show Coded

Time T Td Feel RH Dir Speed Gust Alt SLP Vis Weather Sky Remarks
2017-11-20 18:00 42 31 33 65 230° 13 21 - 29.94 0 Peak wind: 28 mph (25 kts) from 230° at 25 min
2017-11-20 17:00 41 32 32 69 230° 13 21 - 29.97 0 Peak wind: 24 mph (21 kts) from 220° at 25 min
2017-11-20 16:00 38 31 32 73 230° 9 - - 29.98 0 None
2017-11-20 15:00 35 28 29 78 240° 7 - - 30.00 0 None
2017-11-20 14:00 33 27 28 77 240° 6 - - 30.01 0 None
2017-11-20 13:00 31 24 27 74 240° 5 - - 30.01 0 None
2017-11-20 12:00 29 22 23 72 250° 6 - - 30.00 0 None
2017-11-20 11:00 28 22 22 79 250° 5 - - 29.99 0 None
2017-11-20 10:00 27 20 21 72 250° 6 - - 29.99 0 None
2017-11-20 09:00 28 20 21 69 260° 7 - - 29.98 0 None
2017-11-20 08:00 29 19 21 65 280° 7 - - 29.97 0 None
2017-11-20 07:00 29 19 17 64 260° 10 18 - 29.96 0 None
2017-11-20 06:00 29 19 22 65 270° 8 - - 29.94 0 Peak wind: 19 mph (17 kts) from 280° at 39 min
2017-11-20 05:00 30 20 16 65 270° 10 23 - 29.93 0 Peak wind: 24 mph (21 kts) from 260° at 43 min
1-hr Precip Total: 0.01"
2017-11-20 04:00 30 25 23 81 270° 7 - - 29.91 0 None
2017-11-20 03:00 30 26 23 83 270° 7 - - 29.90 0 None
2017-11-20 02:00 31 23 19 71 280° 10 21 - 29.88 0 Peak wind: 20 mph (18 kts) from 290° at 55 min
2017-11-20 01:00 31 23 25 71 280° 7 - - 29.86 0 None
2017-11-20 00:00 30 29 24 97 300° 6 - - 29.85 0 Peak wind: 29 mph (26 kts) from 320° at 19 min
1-hr Precip Total: 0.02"
2017-11-19 23:00 31 27 26 84 300° 6 - - 29.83 0 None
2017-11-19 22:00 32 27 24 83 310° 9 - - 29.81 0 Peak wind: 19 mph (17 kts) from 320° at 40 min
2017-11-19 21:00 31 29 18 91 280° 13 22 - 29.79 0 Peak wind: 21 mph (19 kts) from 270° at 50 min
1-hr Precip Total: 0.01"
2017-11-19 20:00 34 28 27 79 290° 9 - - 29.76 0 Peak wind: 24 mph (21 kts) from 310° at 04 min
2017-11-19 19:00 37 26 25 64 300° 13 25 - 29.73 0 Peak wind: 25 mph (22 kts) from 310° at 55 min

Support USWX by starting your Amazon purchase here.